Aeroboteco Virtual Airlines! Uma nuvem a frente.



 INFORMAÇÕES METEOROLÓGICAS
METAR FOR SCAT
ADDS - METARS form results

(0341 UTC 12 December 2019)
Data provider http://aviationweather.gov/metar/data/
 
METAR text: SCAT 120323Z AUTO 28003KT 250V330 9999 // ///011 15/11 Q1016
Conditions at: SCAT (DESIERTO ATACAMA, CL) observed 0323 UTC 12 December 2019
Temperature: 15.0°C (59°F)
Dewpoint: 11.0°C (52°F) [RH = 77%]
Pressure (altimeter): 30.00 inches Hg (1016.0 mb)
Winds: from the W (280 degrees) at 3 MPH (3 knots; 1.5 m/s)
Visibility: 6 or more miles (10+ km)
Ceiling: unknown
Clouds: missing
Weather: no significant weather observed at this time

METAR text: SCAT 120300Z AUTO VRB02KT 9999 // ///011 15/11 Q1016
Conditions at: SCAT (DESIERTO ATACAMA, CL) observed 0300 UTC 12 December 2019
Temperature: 15.0°C (59°F)
Dewpoint: 11.0°C (52°F) [RH = 77%]
Pressure (altimeter): 30.00 inches Hg (1016.0 mb)
Winds: variable direction winds at 2 MPH (2 knots; 1.0 m/s)
Visibility: 6 or more miles (10+ km)
Ceiling: unknown
Clouds: missing
Weather: no significant weather observed at this time

METAR text: SCAT 120248Z AUTO VRB01KT 9999 // ///011 15/11 Q1016
Conditions at: SCAT (DESIERTO ATACAMA, CL) observed 0248 UTC 12 December 2019
Temperature: 15.0°C (59°F)
Dewpoint: 11.0°C (52°F) [RH = 77%]
Pressure (altimeter): 30.00 inches Hg (1016.0 mb)
Winds: variable direction winds at 1 MPH (1 knots; 0.5 m/s)
Visibility: 6 or more miles (10+ km)
Ceiling: unknown
Clouds: missing
Weather: no significant weather observed at this time

Forecast for: SCAT (DESIERTO ATACAMA, CL)
Text: TAF SCAT 112210Z 1200/1224 24008KT 9999 BKN015 TN15/1208Z TX20/1218Z
Forecast period: 0000 to 0400 UTC 12 December 2019
Forecast type: FROM: standard forecast or significant change
Winds: from the WSW (240 degrees) at 9 MPH (8 knots; 4.1 m/s)
Visibility: 6 or more miles 10+ km)
Ceiling: 1500 feet AGL
Clouds: broken clouds at 1500 feet AGL
Weather: no significant weather forecast for this period
Text: BECMG 1204/1206 19004KT OVC012
Forecast period: 0400 to 1000 UTC 12 December 2019
Forecast type: BECOMING: Conditions expected to become as follows by 0600 UTC 12 December 2019
Winds: from the S (190 degrees) at 5 MPH (4 knots; 2.1 m/s)
Visibility: 6 or more miles 10+ km)
Ceiling: 1200 feet AGL
Clouds: overcast cloud deck at 1200 feet AGL
Weather: no significant weather forecast for this period
Text: BECMG 1210/1212 35015KT
Forecast period: 1000 to 1600 UTC 12 December 2019
Forecast type: BECOMING: Conditions expected to become as follows by 1200 UTC 12 December 2019
Winds: from the N (350 degrees) at 17 MPH (15 knots; 7.7 m/s)
Visibility: 6 or more miles 10+ km)
Ceiling: 1200 feet AGL
Clouds: overcast cloud deck at 1200 feet AGL
Weather: no significant weather forecast for this period
Text: BECMG 1216/1218 BKN020
Forecast period: 1600 to 2200 UTC 12 December 2019
Forecast type: BECOMING: Conditions expected to become as follows by 1800 UTC 12 December 2019
Winds: from the N (350 degrees) at 17 MPH (15 knots; 7.7 m/s)
Visibility: 6 or more miles 10+ km)
Ceiling: 2000 feet AGL
Clouds: broken clouds at 2000 feet AGL
Weather: no significant weather forecast for this period
Text: BECMG 1222/1224 29010KT BKN015
Forecast period: 2200 UTC 12 December 2019 to 0000 UTC 13 December 2019
Forecast type: BECOMING: Conditions expected to become as follows by 0000 UTC 13 December 2019
Winds: from the WNW (290 degrees) at 12 MPH (10 knots; 5.1 m/s)
Visibility: 6 or more miles 10+ km)
Ceiling: 1500 feet AGL
Clouds: broken clouds at 1500 feet AGL
Weather: no significant weather forecast for this period

 MAPA DO AEROPORTO

 INFORMAÇÕES DA PISTA
Pista 17 Tamanho da pista 7218 ft Largura da pista 148 ft
Elevação da pista 620 ft Ranhura da pista 0 ft Proa da pista 175
Pista 35 Tamanho da pista 7218 ft Largura da pista 148 ft
Elevação da pista 670 ft Ranhura da pista 0 ft Proa da pista 355

 FREQUÊNCIAS DO AEROPORTO

 AUXÍLIOS DE NAVEGAÇÃO PRÓXIMOS AO AEROPORTO
Tipo VOR-DME Nome Atacama Frequência 117100 KHZ